Putney, Kentucky
Current Conditions -  °F | °C
As of 10:15 AM on Monday 24 Nov 2014 (Local Time) from KI35 Reporting Station
Broken Clouds Broken Clouds  
Wind Chill: 64°   Ceiling: 4100
Heat Index: 64°   Visibility: 10mi
Dew Point: 48°   Wind: 6mph
Humidity: 56%   Direction: 220°SW
Pressure: 29.65"   Gusts: 18mph
Location:  36.91°N, 83.23°W
Report Text: KI35 241515Z AUTO 22005G16KT 10SM SCT034 BKN041 BKN050 18/09 A2965 RMK AO1
Loading
Personal Weather Stations






























Interactive Weather Map New forecast layout! Learn more

10-Day Weather Forecast

Advertisements
Track Severe Weather on mobile